Home > Products > Valid Products > TAF

000
FTUS43 KGID 182335
TAFGRI
TAF
KGRI 182335Z 1900/1924 VRB02KT P6SM SCT008 OVC012
     FM190200 20006KT P6SM SCT005 OVC008
     FM190400 20005KT 3SM BR SCT002 OVC004
     FM191600 18008KT P6SM SCT004 OVC008
     FM191900 18008KT P6SM SCT008 OVC012=



000
FTUS43 KGID 182335
TAFGRI
TAF
KGRI 182335Z 1900/1924 VRB02KT P6SM SCT008 OVC012
     FM190200 20006KT P6SM SCT005 OVC008
     FM190400 20005KT 3SM BR SCT002 OVC004
     FM191600 18008KT P6SM SCT004 OVC008
     FM191900 18008KT P6SM SCT008 OVC012=



000
FTUS43 KGID 182246 AAA
TAFGRI
TAF AMD
KGRI 182246Z 1823/1918 VRB02KT P6SM SCT008 OVC012
     FM190100 20006KT P6SM SCT005 OVC008
     FM190300 21005KT 5SM BR BKN003 OVC005
     FM191600 18008KT P6SM SCT005 BKN008=



000
FTUS43 KGID 182246 AAA
TAFGRI
TAF AMD
KGRI 182246Z 1823/1918 VRB02KT P6SM SCT008 OVC012
     FM190100 20006KT P6SM SCT005 OVC008
     FM190300 21005KT 5SM BR BKN003 OVC005
     FM191600 18008KT P6SM SCT005 BKN008=



000
FTUS43 KGID 181748
TAFGRI
TAF
KGRI 181748Z 1818/1918 19006KT P6SM SCT008 OVC035
      TEMPO 1818/1822 BKN008 OVC025
     FM182200 20006KT P6SM SCT005 OVC008
     FM190300 21005KT 5SM BR BKN003 OVC005
     FM191600 18008KT P6SM SCT005 BKN008=



000
FTUS43 KGID 181748
TAFGRI
TAF
KGRI 181748Z 1818/1918 19006KT P6SM SCT008 OVC035
      TEMPO 1818/1822 BKN008 OVC025
     FM182200 20006KT P6SM SCT005 OVC008
     FM190300 21005KT 5SM BR BKN003 OVC005
     FM191600 18008KT P6SM SCT005 BKN008=



000
FTUS43 KGID 181606 AAA
TAFGRI
TAF AMD
KGRI 181606Z 1816/1912 18006KT P6SM SCT005 OVC009
     FM190300 21005KT 6SM BR SCT003 OVC005=



000
FTUS43 KGID 181606 AAA
TAFGRI
TAF AMD
KGRI 181606Z 1816/1912 18006KT P6SM SCT005 OVC009
     FM190300 21005KT 6SM BR SCT003 OVC005=



000
FTUS43 KGID 181151
TAFGRI
TAF
KGRI 181151Z 1812/1912 15005KT P6SM SCT015 OVC035
     FM181500 20005KT P6SM SCT007 OVC015
     FM190600 21005KT 6SM BR SCT007 OVC015=



000
FTUS43 KGID 181151
TAFGRI
TAF
KGRI 181151Z 1812/1912 15005KT P6SM SCT015 OVC035
     FM181500 20005KT P6SM SCT007 OVC015
     FM190600 21005KT 6SM BR SCT007 OVC015=



000
FTUS43 KGID 181151
TAFGRI
TAF
KGRI 181151Z 1812/1912 15005KT P6SM SCT015 OVC035
     FM181500 20005KT P6SM SCT007 OVC015
     FM190600 21005KT 6SM BR SCT007 OVC015=



000
FTUS43 KGID 181151
TAFGRI
TAF
KGRI 181151Z 1812/1912 15005KT P6SM SCT015 OVC035
     FM181500 20005KT P6SM SCT007 OVC015
     FM190600 21005KT 6SM BR SCT007 OVC015=



000
FTUS43 KGID 180847 AAB
TAFGRI
TAF AMD
KGRI 180847Z 1809/1906 12006KT 4SM -SN BR SCT015 OVC035
      TEMPO 1809/1811 3SM -SN BR OVC025
     FM181200 15005KT 6SM BR BKN015
     FM181800 21005KT P6SM SCT007 BKN015
     FM190000 21005KT 6SM BR SCT007 BKN015=



000
FTUS43 KGID 180847 AAB
TAFGRI
TAF AMD
KGRI 180847Z 1809/1906 12006KT 4SM -SN BR SCT015 OVC035
      TEMPO 1809/1811 3SM -SN BR OVC025
     FM181200 15005KT 6SM BR BKN015
     FM181800 21005KT P6SM SCT007 BKN015
     FM190000 21005KT 6SM BR SCT007 BKN015=



000
FTUS43 KGID 180847 AAB
TAFGRI
TAF AMD
KGRI 180847Z 1809/1906 12006KT 4SM -SN BR SCT015 OVC035
      TEMPO 1809/1811 3SM -SN BR OVC025
     FM181200 15005KT 6SM BR BKN015
     FM181800 21005KT P6SM SCT007 BKN015
     FM190000 21005KT 6SM BR SCT007 BKN015=



000
FTUS43 KGID 180847 AAB
TAFGRI
TAF AMD
KGRI 180847Z 1809/1906 12006KT 4SM -SN BR SCT015 OVC035
      TEMPO 1809/1811 3SM -SN BR OVC025
     FM181200 15005KT 6SM BR BKN015
     FM181800 21005KT P6SM SCT007 BKN015
     FM190000 21005KT 6SM BR SCT007 BKN015=



000
FTUS43 KGID 180726 AAA
TAFGRI
TAF AMD
KGRI 180726Z 1807/1906 12006KT 4SM -SN BR SCT005 BKN025
      TEMPO 1807/1810 1 1/2SM -SN BR OVC015
     FM181200 15005KT 6SM BR OVC007
     FM181800 21005KT P6SM SCT007 BKN015
     FM190000 21005KT 6SM BR SCT007 BKN015=



000
FTUS43 KGID 180726 AAA
TAFGRI
TAF AMD
KGRI 180726Z 1807/1906 12006KT 4SM -SN BR SCT005 BKN025
      TEMPO 1807/1810 1 1/2SM -SN BR OVC015
     FM181200 15005KT 6SM BR OVC007
     FM181800 21005KT P6SM SCT007 BKN015
     FM190000 21005KT 6SM BR SCT007 BKN015=



000
FTUS43 KGID 180540
TAFGRI
TAF
KGRI 180540Z 1806/1906 12005KT P6SM SCT015 OVC025
     FM180700 12006KT 4SM -SN BR SCT005 OVC010
     FM181200 15005KT 6SM BR OVC007
     FM181800 21005KT P6SM SCT007 BKN015
     FM190000 21005KT 6SM BR SCT007 BKN015=



000
FTUS43 KGID 180540
TAFGRI
TAF
KGRI 180540Z 1806/1906 12005KT P6SM SCT015 OVC025
     FM180700 12006KT 4SM -SN BR SCT005 OVC010
     FM181200 15005KT 6SM BR OVC007
     FM181800 21005KT P6SM SCT007 BKN015
     FM190000 21005KT 6SM BR SCT007 BKN015=



000
FTUS43 KGID 180414 AAA
TAFGRI
TAF AMD
KGRI 180414Z 1804/1824 11006KT P6SM SCT015 OVC035
     FM180700 11006KT 4SM -SN BR SCT005 OVC010
     FM181200 13008KT 2SM BR SCT003 OVC007
     FM181800 19007KT 5SM BR OVC015=



000
FTUS43 KGID 172320
TAFGRI
TAF
KGRI 172320Z 1800/1824 10009KT P6SM OVC012
     FM180500 11006KT 4SM -SN BR SCT005 OVC010
     FM181200 13008KT 2SM BR SCT003 OVC007
     FM181800 19007KT 5SM BR OVC015=



000
FTUS43 KGID 172320
TAFGRI
TAF
KGRI 172320Z 1800/1824 10009KT P6SM OVC012
     FM180500 11006KT 4SM -SN BR SCT005 OVC010
     FM181200 13008KT 2SM BR SCT003 OVC007
     FM181800 19007KT 5SM BR OVC015=



000
FTUS43 KGID 171733
TAFGRI
TAF
KGRI 171733Z 1718/1818 10009KT P6SM OVC012
     FM180400 11006KT 4SM -SN BR SCT005 OVC010
     FM181200 13008KT 2SM BR SCT003 OVC007=



000
FTUS43 KGID 171733
TAFGRI
TAF
KGRI 171733Z 1718/1818 10009KT P6SM OVC012
     FM180400 11006KT 4SM -SN BR SCT005 OVC010
     FM181200 13008KT 2SM BR SCT003 OVC007=



000
FTUS43 KGID 171156
TAFGRI
TAF
KGRI 171156Z 1712/1812 10009KT P6SM OVC015
      TEMPO 1712/1716 OVC007
     FM180400 11006KT 4SM -SN BR SCT005 OVC012=



000
FTUS43 KGID 171156
TAFGRI
TAF
KGRI 171156Z 1712/1812 10009KT P6SM OVC015
      TEMPO 1712/1716 OVC007
     FM180400 11006KT 4SM -SN BR SCT005 OVC012=



000
FTUS43 KGID 171009 AAA
TAFGRI
TAF AMD
KGRI 171009Z 1710/1806 10006KT P6SM OVC009
     FM171800 11009KT P6SM SCT010 BKN060
     FM180400 11006KT 6SM -SN BKN012=



000
FTUS43 KGID 171009 AAA
TAFGRI
TAF AMD
KGRI 171009Z 1710/1806 10006KT P6SM OVC009
     FM171800 11009KT P6SM SCT010 BKN060
     FM180400 11006KT 6SM -SN BKN012=



000
FTUS43 KGID 171009 AAA
TAFGRI
TAF AMD
KGRI 171009Z 1710/1806 10006KT P6SM OVC009
     FM171800 11009KT P6SM SCT010 BKN060
     FM180400 11006KT 6SM -SN BKN012=



000
FTUS43 KGID 170556
TAFGRI
TAF
KGRI 170556Z 1706/1806 10006KT P6SM OVC012
     FM171800 11009KT P6SM SCT012 BKN060
     FM180400 11006KT 6SM -SN BKN012=



000
FTUS43 KGID 170556
TAFGRI
TAF
KGRI 170556Z 1706/1806 10006KT P6SM OVC012
     FM171800 11009KT P6SM SCT012 BKN060
     FM180400 11006KT 6SM -SN BKN012=



000
FTUS43 KGID 162320
TAFGRI
TAF
KGRI 162320Z 1700/1724 VRB06KT P6SM OVC015
     FM171500 10005KT P6SM SCT015 OVC035=



000
FTUS43 KGID 162320
TAFGRI
TAF
KGRI 162320Z 1700/1724 VRB06KT P6SM OVC015
     FM171500 10005KT P6SM SCT015 OVC035=



000
FTUS43 KGID 161735
TAFGRI
TAF
KGRI 161735Z 1618/1718 33012G18KT P6SM OVC015
     FM170000 VRB04KT P6SM OVC015
     FM170900 11005KT P6SM OVC015=



000
FTUS43 KGID 161735
TAFGRI
TAF
KGRI 161735Z 1618/1718 33012G18KT P6SM OVC015
     FM170000 VRB04KT P6SM OVC015
     FM170900 11005KT P6SM OVC015=



000
FTUS43 KGID 161137
TAFGRI
TAF
KGRI 161137Z 1612/1712 33017G24KT P6SM OVC015
     FM161800 33012G18KT P6SM BKN015
     FM162300 36006KT P6SM BKN015 BKN100
     FM170600 05005KT P6SM BKN015 BKN100=



000
FTUS43 KGID 161137
TAFGRI
TAF
KGRI 161137Z 1612/1712 33017G24KT P6SM OVC015
     FM161800 33012G18KT P6SM BKN015
     FM162300 36006KT P6SM BKN015 BKN100
     FM170600 05005KT P6SM BKN015 BKN100=



000
FTUS43 KGID 160539
TAFGRI
TAF
KGRI 160539Z 1606/1706 33022G31KT P6SM OVC015
     FM161200 33016G23KT P6SM BKN015
     FM161800 33012G18KT P6SM SCT015
     FM162300 36006KT P6SM SCT015=



000
FTUS43 KGID 160539
TAFGRI
TAF
KGRI 160539Z 1606/1706 33022G31KT P6SM OVC015
     FM161200 33016G23KT P6SM BKN015
     FM161800 33012G18KT P6SM SCT015
     FM162300 36006KT P6SM SCT015=



    US Dept of Commerce
    National Oceanic and Atmospheric Administration
    National Weather Service
    1325 East West Highway
    Silver Spring, MD 20910
    Page Author: NWS Internet Services Team
Disclaimer
Information Quality
Credits
Glossary
Privacy Policy
Freedom of Information Act (FOIA)
About Us
Career Opportunities